sensor_id;sensor_type;location;lat;lon;timestamp;temperature;humidity
9730;DHT22;4904;49.152;11.004;2023-05-29T00:01:55;14.30;99.90
9730;DHT22;4904;49.152;11.004;2023-05-29T00:04:22;14.30;99.90
9730;DHT22;4904;49.152;11.004;2023-05-29T00:06:49;14.20;99.90
9730;DHT22;4904;49.152;11.004;2023-05-29T00:09:16;14.10;99.90
9730;DHT22;4904;49.152;11.004;2023-05-29T00:11:43;13.90;99.90
9730;DHT22;4904;49.152;11.004;2023-05-29T00:14:12;13.90;99.90
9730;DHT22;4904;49.152;11.004;2023-05-29T00:16:39;13.90;99.90
9730;DHT22;4904;49.152;11.004;2023-05-29T00:19:13;13.90;99.90
9730;DHT22;4904;49.152;11.004;2023-05-29T00:21:42;13.80;99.90
9730;DHT22;4904;49.152;11.004;2023-05-29T00:24:13;13.70;99.90
9730;DHT22;4904;49.152;11.004;2023-05-29T00:26:40;13.50;99.90
9730;DHT22;4904;49.152;11.004;2023-05-29T00:29:07;13.50;99.90
9730;DHT22;4904;49.152;11.004;2023-05-29T00:31:36;13.60;99.90
9730;DHT22;4904;49.152;11.004;2023-05-29T00:34:03;13.30;99.90
9730;DHT22;4904;49.152;11.004;2023-05-29T00:36:34;13.10;99.90
9730;DHT22;4904;49.152;11.004;2023-05-29T00:39:01;13.20;99.90
9730;DHT22;4904;49.152;11.004;2023-05-29T00:41:28;13.20;99.90
9730;DHT22;4904;49.152;11.004;2023-05-29T00:43:55;13.20;99.90
9730;DHT22;4904;49.152;11.004;2023-05-29T00:46:22;13.30;99.90
9730;DHT22;4904;49.152;11.004;2023-05-29T00:48:49;13.30;99.90
9730;DHT22;4904;49.152;11.004;2023-05-29T00:51:17;13.40;99.90
9730;DHT22;4904;49.152;11.004;2023-05-29T00:53:46;13.40;99.90
9730;DHT22;4904;49.152;11.004;2023-05-29T00:56:14;13.40;99.90
9730;DHT22;4904;49.152;11.004;2023-05-29T00:58:42;13.20;99.90
9730;DHT22;4904;49.152;11.004;2023-05-29T01:01:09;13.10;99.90
9730;DHT22;4904;49.152;11.004;2023-05-29T01:03:37;13.10;99.90
9730;DHT22;4904;49.152;11.004;2023-05-29T01:06:04;13.10;99.90
9730;DHT22;4904;49.152;11.004;2023-05-29T01:08:33;13.10;99.90
9730;DHT22;4904;49.152;11.004;2023-05-29T01:11:08;13.10;99.90
9730;DHT22;4904;49.152;11.004;2023-05-29T01:13:39;13.00;99.90
9730;DHT22;4904;49.152;11.004;2023-05-29T01:16:11;12.90;99.90
9730;DHT22;4904;49.152;11.004;2023-05-29T01:18:46;13.00;99.90
9730;DHT22;4904;49.152;11.004;2023-05-29T01:21:23;12.90;99.90
9730;DHT22;4904;49.152;11.004;2023-05-29T01:24:01;12.80;99.90
9730;DHT22;4904;49.152;11.004;2023-05-29T01:26:48;13.00;99.90
9730;DHT22;4904;49.152;11.004;2023-05-29T01:29:19;12.80;99.90
9730;DHT22;4904;49.152;11.004;2023-05-29T01:31:48;12.70;99.90
9730;DHT22;4904;49.152;11.004;2023-05-29T01:34:15;12.70;99.90
9730;DHT22;4904;49.152;11.004;2023-05-29T01:36:42;12.80;99.90
9730;DHT22;4904;49.152;11.004;2023-05-29T01:39:09;12.80;99.90
9730;DHT22;4904;49.152;11.004;2023-05-29T01:41:36;12.80;99.90
9730;DHT22;4904;49.152;11.004;2023-05-29T01:44:07;12.60;99.90
9730;DHT22;4904;49.152;11.004;2023-05-29T01:46:36;12.70;99.90
9730;DHT22;4904;49.152;11.004;2023-05-29T01:49:04;12.60;99.90
9730;DHT22;4904;49.152;11.004;2023-05-29T01:51:31;12.60;99.90
9730;DHT22;4904;49.152;11.004;2023-05-29T01:53:59;12.60;99.90
9730;DHT22;4904;49.152;11.004;2023-05-29T01:56:27;12.60;99.90
9730;DHT22;4904;49.152;11.004;2023-05-29T01:58:55;12.70;99.90
9730;DHT22;4904;49.152;11.004;2023-05-29T02:01:24;12.70;99.90
9730;DHT22;4904;49.152;11.004;2023-05-29T02:03:51;12.70;99.90
9730;DHT22;4904;49.152;11.004;2023-05-29T02:06:19;12.70;99.90
9730;DHT22;4904;49.152;11.004;2023-05-29T02:08:46;12.70;99.90
9730;DHT22;4904;49.152;11.004;2023-05-29T02:11:13;12.70;99.90
9730;DHT22;4904;49.152;11.004;2023-05-29T02:13:41;12.70;99.90
9730;DHT22;4904;49.152;11.004;2023-05-29T02:16:09;12.70;99.90
9730;DHT22;4904;49.152;11.004;2023-05-29T02:18:37;12.60;99.90
9730;DHT22;4904;49.152;11.004;2023-05-29T02:21:04;12.60;99.90
9730;DHT22;4904;49.152;11.004;2023-05-29T02:23:32;12.60;99.90
9730;DHT22;4904;49.152;11.004;2023-05-29T02:25:59;12.70;99.90
9730;DHT22;4904;49.152;11.004;2023-05-29T02:28:26;12.60;99.90
9730;DHT22;4904;49.152;11.004;2023-05-29T02:30:53;12.60;99.90
9730;DHT22;4904;49.152;11.004;2023-05-29T02:33:20;12.50;99.90
9730;DHT22;4904;49.152;11.004;2023-05-29T02:35:49;12.50;99.90
9730;DHT22;4904;49.152;11.004;2023-05-29T02:38:16;12.40;99.90
9730;DHT22;4904;49.152;11.004;2023-05-29T02:40:43;12.30;99.90
9730;DHT22;4904;49.152;11.004;2023-05-29T02:43:13;12.20;99.90
9730;DHT22;4904;49.152;11.004;2023-05-29T02:45:40;12.10;99.90
9730;DHT22;4904;49.152;11.004;2023-05-29T02:48:07;12.10;99.90
9730;DHT22;4904;49.152;11.004;2023-05-29T02:50:34;12.10;99.90
9730;DHT22;4904;49.152;11.004;2023-05-29T02:53:03;12.00;99.90
9730;DHT22;4904;49.152;11.004;2023-05-29T02:55:31;11.90;99.90
9730;DHT22;4904;49.152;11.004;2023-05-29T02:58:01;11.80;99.90
9730;DHT22;4904;49.152;11.004;2023-05-29T03:00:29;11.70;99.90
9730;DHT22;4904;49.152;11.004;2023-05-29T03:02:56;11.70;99.90
9730;DHT22;4904;49.152;11.004;2023-05-29T03:05:23;11.70;99.90
9730;DHT22;4904;49.152;11.004;2023-05-29T03:07:51;11.80;99.90
9730;DHT22;4904;49.152;11.004;2023-05-29T03:10:20;12.00;99.90
9730;DHT22;4904;49.152;11.004;2023-05-29T03:12:47;12.20;99.90
9730;DHT22;4904;49.152;11.004;2023-05-29T03:15:14;11.90;99.90
9730;DHT22;4904;49.152;11.004;2023-05-29T03:17:42;11.90;99.90
9730;DHT22;4904;49.152;11.004;2023-05-29T03:20:10;11.80;99.90
9730;DHT22;4904;49.152;11.004;2023-05-29T03:22:39;11.80;99.90
9730;DHT22;4904;49.152;11.004;2023-05-29T03:25:07;11.90;99.90
9730;DHT22;4904;49.152;11.004;2023-05-29T03:27:36;11.80;99.90
9730;DHT22;4904;49.152;11.004;2023-05-29T03:30:03;11.80;99.90
9730;DHT22;4904;49.152;11.004;2023-05-29T03:32:31;11.80;99.90
9730;DHT22;4904;49.152;11.004;2023-05-29T03:34:58;11.70;99.90
9730;DHT22;4904;49.152;11.004;2023-05-29T03:37:26;11.90;99.90
9730;DHT22;4904;49.152;11.004;2023-05-29T03:39:53;11.80;99.90
9730;DHT22;4904;49.152;11.004;2023-05-29T03:42:21;11.80;99.90
9730;DHT22;4904;49.152;11.004;2023-05-29T03:44:50;11.60;99.90
9730;DHT22;4904;49.152;11.004;2023-05-29T03:47:17;11.40;99.90
9730;DHT22;4904;49.152;11.004;2023-05-29T03:49:44;11.20;99.90
9730;DHT22;4904;49.152;11.004;2023-05-29T03:52:11;11.20;99.90
9730;DHT22;4904;49.152;11.004;2023-05-29T03:54:38;11.20;99.90
9730;DHT22;4904;49.152;11.004;2023-05-29T03:57:05;11.20;99.90
9730;DHT22;4904;49.152;11.004;2023-05-29T03:59:34;11.20;99.90
9730;DHT22;4904;49.152;11.004;2023-05-29T04:02:33;11.20;99.90
9730;DHT22;4904;49.152;11.004;2023-05-29T04:05:27;10.80;99.90
9730;DHT22;4904;49.152;11.004;2023-05-29T04:08:11;10.90;99.90
9730;DHT22;4904;49.152;11.004;2023-05-29T04:10:52;11.90;99.90
9730;DHT22;4904;49.152;11.004;2023-05-29T04:13:35;10.70;99.90
9730;DHT22;4904;49.152;11.004;2023-05-29T04:16:22;10.70;99.90
9730;DHT22;4904;49.152;11.004;2023-05-29T04:18:53;10.80;99.90
9730;DHT22;4904;49.152;11.004;2023-05-29T04:21:27;10.90;99.90
9730;DHT22;4904;49.152;11.004;2023-05-29T04:23:56;11.00;99.90
9730;DHT22;4904;49.152;11.004;2023-05-29T04:26:43;11.10;99.90
9730;DHT22;4904;49.152;11.004;2023-05-29T04:29:26;11.10;99.90
9730;DHT22;4904;49.152;11.004;2023-05-29T04:32:01;11.30;99.90
9730;DHT22;4904;49.152;11.004;2023-05-29T04:34:31;11.40;99.90
9730;DHT22;4904;49.152;11.004;2023-05-29T04:36:58;11.60;99.90
9730;DHT22;4904;49.152;11.004;2023-05-29T04:39:25;11.60;99.90
9730;DHT22;4904;49.152;11.004;2023-05-29T04:41:53;11.60;99.90
9730;DHT22;4904;49.152;11.004;2023-05-29T04:44:22;11.60;99.90
9730;DHT22;4904;49.152;11.004;2023-05-29T04:46:51;11.70;99.90
9730;DHT22;4904;49.152;11.004;2023-05-29T04:49:18;12.00;99.90
9730;DHT22;4904;49.152;11.004;2023-05-29T04:51:50;11.80;99.90
9730;DHT22;4904;49.152;11.004;2023-05-29T04:54:18;11.90;99.90
9730;DHT22;4904;49.152;11.004;2023-05-29T04:56:46;11.90;99.90
9730;DHT22;4904;49.152;11.004;2023-05-29T04:59:13;12.10;99.90
9730;DHT22;4904;49.152;11.004;2023-05-29T05:01:40;12.10;99.90
9730;DHT22;4904;49.152;11.004;2023-05-29T05:04:08;12.10;99.90
9730;DHT22;4904;49.152;11.004;2023-05-29T05:06:35;12.20;99.90
9730;DHT22;4904;49.152;11.004;2023-05-29T05:09:06;12.20;99.90
9730;DHT22;4904;49.152;11.004;2023-05-29T05:11:33;12.30;99.90
9730;DHT22;4904;49.152;11.004;2023-05-29T05:14:01;12.30;99.90
9730;DHT22;4904;49.152;11.004;2023-05-29T05:16:28;12.30;99.90
9730;DHT22;4904;49.152;11.004;2023-05-29T05:18:55;12.30;99.90
9730;DHT22;4904;49.152;11.004;2023-05-29T05:21:22;12.40;99.90
9730;DHT22;4904;49.152;11.004;2023-05-29T05:23:49;12.30;99.90
9730;DHT22;4904;49.152;11.004;2023-05-29T05:26:17;12.40;99.90
9730;DHT22;4904;49.152;11.004;2023-05-29T05:28:44;12.40;99.90
9730;DHT22;4904;49.152;11.004;2023-05-29T05:31:11;12.50;99.90
9730;DHT22;4904;49.152;11.004;2023-05-29T05:33:38;12.70;99.90
9730;DHT22;4904;49.152;11.004;2023-05-29T05:36:06;12.70;99.90
9730;DHT22;4904;49.152;11.004;2023-05-29T05:38:33;12.80;99.90
9730;DHT22;4904;49.152;11.004;2023-05-29T05:41:00;13.10;99.90
9730;DHT22;4904;49.152;11.004;2023-05-29T05:43:29;13.00;99.90
9730;DHT22;4904;49.152;11.004;2023-05-29T05:45:56;13.10;99.90
9730;DHT22;4904;49.152;11.004;2023-05-29T05:48:22;13.30;99.90
9730;DHT22;4904;49.152;11.004;2023-05-29T05:50:49;13.30;99.90
9730;DHT22;4904;49.152;11.004;2023-05-29T05:53:17;13.50;99.90
9730;DHT22;4904;49.152;11.004;2023-05-29T05:55:44;13.50;99.90
9730;DHT22;4904;49.152;11.004;2023-05-29T05:58:11;13.70;99.90
9730;DHT22;4904;49.152;11.004;2023-05-29T06:00:39;13.80;99.90
9730;DHT22;4904;49.152;11.004;2023-05-29T06:03:06;13.90;99.90
9730;DHT22;4904;49.152;11.004;2023-05-29T06:05:33;13.90;99.90
9730;DHT22;4904;49.152;11.004;2023-05-29T06:08:02;14.10;99.90
9730;DHT22;4904;49.152;11.004;2023-05-29T06:10:28;14.20;99.90
9730;DHT22;4904;49.152;11.004;2023-05-29T06:12:55;14.30;99.90
9730;DHT22;4904;49.152;11.004;2023-05-29T06:15:22;14.40;99.90
9730;DHT22;4904;49.152;11.004;2023-05-29T06:17:51;14.50;99.90
9730;DHT22;4904;49.152;11.004;2023-05-29T06:20:20;14.60;99.90
9730;DHT22;4904;49.152;11.004;2023-05-29T06:22:48;14.70;99.90
9730;DHT22;4904;49.152;11.004;2023-05-29T06:25:16;14.90;99.90
9730;DHT22;4904;49.152;11.004;2023-05-29T06:27:44;14.90;99.90
9730;DHT22;4904;49.152;11.004;2023-05-29T06:30:11;15.00;99.90
9730;DHT22;4904;49.152;11.004;2023-05-29T06:32:38;15.20;99.90
9730;DHT22;4904;49.152;11.004;2023-05-29T06:35:07;15.20;99.90
9730;DHT22;4904;49.152;11.004;2023-05-29T06:37:34;15.30;99.90
9730;DHT22;4904;49.152;11.004;2023-05-29T06:40:02;15.40;99.90
9730;DHT22;4904;49.152;11.004;2023-05-29T06:42:30;15.50;99.90
9730;DHT22;4904;49.152;11.004;2023-05-29T06:44:57;15.60;99.90
9730;DHT22;4904;49.152;11.004;2023-05-29T06:47:24;15.80;99.90
9730;DHT22;4904;49.152;11.004;2023-05-29T06:49:51;15.90;99.90
9730;DHT22;4904;49.152;11.004;2023-05-29T06:52:20;16.00;99.90
9730;DHT22;4904;49.152;11.004;2023-05-29T06:54:47;16.00;99.90
9730;DHT22;4904;49.152;11.004;2023-05-29T06:57:14;16.10;99.90
9730;DHT22;4904;49.152;11.004;2023-05-29T06:59:41;16.20;99.90
9730;DHT22;4904;49.152;11.004;2023-05-29T07:02:09;16.30;99.90
9730;DHT22;4904;49.152;11.004;2023-05-29T07:04:36;16.50;99.90
9730;DHT22;4904;49.152;11.004;2023-05-29T07:07:03;16.60;99.90
9730;DHT22;4904;49.152;11.004;2023-05-29T07:09:31;16.70;99.90
9730;DHT22;4904;49.152;11.004;2023-05-29T07:11:59;16.90;99.90
9730;DHT22;4904;49.152;11.004;2023-05-29T07:14:26;17.00;99.90
9730;DHT22;4904;49.152;11.004;2023-05-29T07:16:55;17.00;99.90
9730;DHT22;4904;49.152;11.004;2023-05-29T07:19:22;17.20;99.90
9730;DHT22;4904;49.152;11.004;2023-05-29T07:21:49;17.30;99.90
9730;DHT22;4904;49.152;11.004;2023-05-29T07:24:17;17.40;99.90
9730;DHT22;4904;49.152;11.004;2023-05-29T07:26:45;17.50;99.90
9730;DHT22;4904;49.152;11.004;2023-05-29T07:29:14;17.60;99.90
9730;DHT22;4904;49.152;11.004;2023-05-29T07:31:43;17.70;99.90
9730;DHT22;4904;49.152;11.004;2023-05-29T07:34:10;17.80;99.90
9730;DHT22;4904;49.152;11.004;2023-05-29T07:36:56;18.00;99.90
9730;DHT22;4904;49.152;11.004;2023-05-29T07:39:23;18.10;99.90
9730;DHT22;4904;49.152;11.004;2023-05-29T07:41:51;18.20;99.90
9730;DHT22;4904;49.152;11.004;2023-05-29T07:44:22;18.30;99.90
9730;DHT22;4904;49.152;11.004;2023-05-29T07:46:49;18.50;99.90
9730;DHT22;4904;49.152;11.004;2023-05-29T07:49:19;18.50;99.90
9730;DHT22;4904;49.152;11.004;2023-05-29T07:51:47;18.60;99.90
9730;DHT22;4904;49.152;11.004;2023-05-29T07:54:14;18.60;99.90
9730;DHT22;4904;49.152;11.004;2023-05-29T07:56:43;18.70;99.90
9730;DHT22;4904;49.152;11.004;2023-05-29T07:59:12;18.90;99.90
9730;DHT22;4904;49.152;11.004;2023-05-29T08:01:40;18.90;99.90
9730;DHT22;4904;49.152;11.004;2023-05-29T08:04:09;19.10;99.90
9730;DHT22;4904;49.152;11.004;2023-05-29T08:06:36;19.20;99.90
9730;DHT22;4904;49.152;11.004;2023-05-29T08:09:03;19.30;99.90
9730;DHT22;4904;49.152;11.004;2023-05-29T08:11:30;19.40;99.90
9730;DHT22;4904;49.152;11.004;2023-05-29T08:13:58;19.50;99.90
9730;DHT22;4904;49.152;11.004;2023-05-29T08:16:27;19.60;99.90
9730;DHT22;4904;49.152;11.004;2023-05-29T08:18:54;19.70;99.90
9730;DHT22;4904;49.152;11.004;2023-05-29T08:21:22;19.80;99.90
9730;DHT22;4904;49.152;11.004;2023-05-29T08:23:48;19.90;99.90
9730;DHT22;4904;49.152;11.004;2023-05-29T08:26:15;20.00;99.90
9730;DHT22;4904;49.152;11.004;2023-05-29T08:28:44;20.10;99.90
9730;DHT22;4904;49.152;11.004;2023-05-29T08:31:12;20.10;99.90
9730;DHT22;4904;49.152;11.004;2023-05-29T08:33:40;20.20;99.90
9730;DHT22;4904;49.152;11.004;2023-05-29T08:36:09;20.30;99.90
9730;DHT22;4904;49.152;11.004;2023-05-29T08:38:37;20.40;99.90
9730;DHT22;4904;49.152;11.004;2023-05-29T08:41:04;20.50;99.90
9730;DHT22;4904;49.152;11.004;2023-05-29T08:43:37;20.50;99.90
9730;DHT22;4904;49.152;11.004;2023-05-29T08:46:04;20.60;99.90
9730;DHT22;4904;49.152;11.004;2023-05-29T08:48:32;20.60;99.90
9730;DHT22;4904;49.152;11.004;2023-05-29T08:51:04;20.70;99.90
9730;DHT22;4904;49.152;11.004;2023-05-29T08:53:32;20.70;99.90
9730;DHT22;4904;49.152;11.004;2023-05-29T08:56:00;20.90;99.90
9730;DHT22;4904;49.152;11.004;2023-05-29T08:58:28;20.90;99.90
9730;DHT22;4904;49.152;11.004;2023-05-29T09:00:55;21.00;99.90
9730;DHT22;4904;49.152;11.004;2023-05-29T09:03:22;21.00;99.90
9730;DHT22;4904;49.152;11.004;2023-05-29T09:05:49;21.10;99.90
9730;DHT22;4904;49.152;11.004;2023-05-29T09:08:18;21.20;99.90
9730;DHT22;4904;49.152;11.004;2023-05-29T09:10:46;21.20;99.90
9730;DHT22;4904;49.152;11.004;2023-05-29T09:13:14;21.20;99.90
9730;DHT22;4904;49.152;11.004;2023-05-29T09:15:41;21.30;99.90
9730;DHT22;4904;49.152;11.004;2023-05-29T09:18:09;21.30;99.90
9730;DHT22;4904;49.152;11.004;2023-05-29T09:20:36;21.40;99.90
9730;DHT22;4904;49.152;11.004;2023-05-29T09:23:05;21.50;99.90
9730;DHT22;4904;49.152;11.004;2023-05-29T09:25:35;21.60;99.90
9730;DHT22;4904;49.152;11.004;2023-05-29T09:28:04;21.60;99.90
9730;DHT22;4904;49.152;11.004;2023-05-29T09:30:36;21.60;99.90
9730;DHT22;4904;49.152;11.004;2023-05-29T09:33:04;21.70;99.90
9730;DHT22;4904;49.152;11.004;2023-05-29T09:35:36;21.80;99.90
9730;DHT22;4904;49.152;11.004;2023-05-29T09:38:04;21.80;99.90
9730;DHT22;4904;49.152;11.004;2023-05-29T09:40:32;21.90;99.90
9730;DHT22;4904;49.152;11.004;2023-05-29T09:43:04;22.00;99.90
9730;DHT22;4904;49.152;11.004;2023-05-29T09:45:37;22.00;99.90
9730;DHT22;4904;49.152;11.004;2023-05-29T09:48:06;22.00;99.90
9730;DHT22;4904;49.152;11.004;2023-05-29T09:50:33;22.00;99.90
9730;DHT22;4904;49.152;11.004;2023-05-29T09:53:01;22.10;99.90
9730;DHT22;4904;49.152;11.004;2023-05-29T09:55:30;22.20;99.90
9730;DHT22;4904;49.152;11.004;2023-05-29T09:58:00;22.30;99.90
9730;DHT22;4904;49.152;11.004;2023-05-29T10:00:29;22.40;99.90
9730;DHT22;4904;49.152;11.004;2023-05-29T10:02:56;22.50;99.90
9730;DHT22;4904;49.152;11.004;2023-05-29T10:05:24;22.60;99.90
9730;DHT22;4904;49.152;11.004;2023-05-29T10:07:54;22.70;99.90
9730;DHT22;4904;49.152;11.004;2023-05-29T10:10:21;22.70;99.90
9730;DHT22;4904;49.152;11.004;2023-05-29T10:12:53;22.80;99.90
9730;DHT22;4904;49.152;11.004;2023-05-29T10:15:23;22.80;99.90
9730;DHT22;4904;49.152;11.004;2023-05-29T10:17:59;22.80;99.90
9730;DHT22;4904;49.152;11.004;2023-05-29T10:20:28;22.90;99.90
9730;DHT22;4904;49.152;11.004;2023-05-29T10:22:57;22.90;99.90
9730;DHT22;4904;49.152;11.004;2023-05-29T10:25:27;23.00;99.90
9730;DHT22;4904;49.152;11.004;2023-05-29T10:27:56;23.00;99.90
9730;DHT22;4904;49.152;11.004;2023-05-29T10:30:31;23.00;99.90
9730;DHT22;4904;49.152;11.004;2023-05-29T10:33:11;23.00;99.90
9730;DHT22;4904;49.152;11.004;2023-05-29T10:35:45;23.00;99.90
9730;DHT22;4904;49.152;11.004;2023-05-29T10:38:14;23.00;99.90
9730;DHT22;4904;49.152;11.004;2023-05-29T10:40:44;23.00;99.90
9730;DHT22;4904;49.152;11.004;2023-05-29T10:43:32;23.10;99.90
9730;DHT22;4904;49.152;11.004;2023-05-29T10:46:01;23.20;99.90
9730;DHT22;4904;49.152;11.004;2023-05-29T10:48:41;23.30;99.90
9730;DHT22;4904;49.152;11.004;2023-05-29T10:51:23;23.30;99.90
9730;DHT22;4904;49.152;11.004;2023-05-29T10:53:51;23.40;99.90
9730;DHT22;4904;49.152;11.004;2023-05-29T10:56:22;23.40;99.90
9730;DHT22;4904;49.152;11.004;2023-05-29T10:58:56;23.50;99.90
9730;DHT22;4904;49.152;11.004;2023-05-29T11:01:25;23.40;99.90
9730;DHT22;4904;49.152;11.004;2023-05-29T11:04:00;23.60;99.90
9730;DHT22;4904;49.152;11.004;2023-05-29T11:06:50;23.70;99.90
9730;DHT22;4904;49.152;11.004;2023-05-29T11:09:27;23.70;99.90
9730;DHT22;4904;49.152;11.004;2023-05-29T11:12:15;23.80;99.90
9730;DHT22;4904;49.152;11.004;2023-05-29T11:14:55;24.00;99.90
9730;DHT22;4904;49.152;11.004;2023-05-29T11:17:42;24.00;99.90
9730;DHT22;4904;49.152;11.004;2023-05-29T11:20:17;24.00;99.90
9730;DHT22;4904;49.152;11.004;2023-05-29T11:23:01;24.00;99.00
9730;DHT22;4904;49.152;11.004;2023-05-29T11:25:30;24.00;99.90
9730;DHT22;4904;49.152;11.004;2023-05-29T11:27:59;24.00;99.30
9730;DHT22;4904;49.152;11.004;2023-05-29T11:30:29;24.10;99.90
9730;DHT22;4904;49.152;11.004;2023-05-29T11:33:01;24.20;99.90
9730;DHT22;4904;49.152;11.004;2023-05-29T11:35:31;24.30;99.90
9730;DHT22;4904;49.152;11.004;2023-05-29T11:38:01;24.30;99.90
9730;DHT22;4904;49.152;11.004;2023-05-29T11:40:28;24.40;99.90
9730;DHT22;4904;49.152;11.004;2023-05-29T11:42:56;24.40;99.90
9730;DHT22;4904;49.152;11.004;2023-05-29T11:45:23;24.50;99.90
9730;DHT22;4904;49.152;11.004;2023-05-29T11:47:54;24.50;99.90
9730;DHT22;4904;49.152;11.004;2023-05-29T11:50:24;24.60;99.90
9730;DHT22;4904;49.152;11.004;2023-05-29T11:52:51;24.60;97.80
9730;DHT22;4904;49.152;11.004;2023-05-29T11:55:19;24.50;99.90
9730;DHT22;4904;49.152;11.004;2023-05-29T11:57:46;24.60;99.90
9730;DHT22;4904;49.152;11.004;2023-05-29T12:00:14;24.70;99.90
9730;DHT22;4904;49.152;11.004;2023-05-29T12:02:42;24.70;99.20
9730;DHT22;4904;49.152;11.004;2023-05-29T12:05:09;24.80;99.60
9730;DHT22;4904;49.152;11.004;2023-05-29T12:07:47;24.80;97.90
9730;DHT22;4904;49.152;11.004;2023-05-29T12:10:16;24.90;97.20
9730;DHT22;4904;49.152;11.004;2023-05-29T12:12:47;24.90;98.80
9730;DHT22;4904;49.152;11.004;2023-05-29T12:15:14;25.00;99.30
9730;DHT22;4904;49.152;11.004;2023-05-29T12:17:43;25.10;99.30
9730;DHT22;4904;49.152;11.004;2023-05-29T12:20:11;25.10;98.50
9730;DHT22;4904;49.152;11.004;2023-05-29T12:22:41;25.20;99.40
9730;DHT22;4904;49.152;11.004;2023-05-29T12:25:11;25.20;98.40
9730;DHT22;4904;49.152;11.004;2023-05-29T12:27:42;25.30;98.10
9730;DHT22;4904;49.152;11.004;2023-05-29T12:30:10;25.40;98.70
9730;DHT22;4904;49.152;11.004;2023-05-29T12:32:38;25.40;97.80
9730;DHT22;4904;49.152;11.004;2023-05-29T12:35:16;25.50;97.60
9730;DHT22;4904;49.152;11.004;2023-05-29T12:37:49;25.50;98.80
9730;DHT22;4904;49.152;11.004;2023-05-29T12:40:19;25.60;98.50
9730;DHT22;4904;49.152;11.004;2023-05-29T12:42:47;25.70;99.50
9730;DHT22;4904;49.152;11.004;2023-05-29T12:45:17;25.70;98.10
9730;DHT22;4904;49.152;11.004;2023-05-29T12:47:52;25.70;97.30
9730;DHT22;4904;49.152;11.004;2023-05-29T12:50:24;25.80;98.70
9730;DHT22;4904;49.152;11.004;2023-05-29T12:52:57;25.90;97.10
9730;DHT22;4904;49.152;11.004;2023-05-29T12:55:25;25.90;96.40
9730;DHT22;4904;49.152;11.004;2023-05-29T12:57:53;25.90;98.00
9730;DHT22;4904;49.152;11.004;2023-05-29T13:00:20;26.00;98.80
9730;DHT22;4904;49.152;11.004;2023-05-29T13:02:48;26.10;98.80
9730;DHT22;4904;49.152;11.004;2023-05-29T13:05:15;26.20;96.20
9730;DHT22;4904;49.152;11.004;2023-05-29T13:07:44;26.20;96.90
9730;DHT22;4904;49.152;11.004;2023-05-29T13:10:13;26.20;98.20
9730;DHT22;4904;49.152;11.004;2023-05-29T13:12:40;26.20;98.60
9730;DHT22;4904;49.152;11.004;2023-05-29T13:15:07;26.30;99.10
9730;DHT22;4904;49.152;11.004;2023-05-29T13:17:34;26.40;99.00
9730;DHT22;4904;49.152;11.004;2023-05-29T13:20:01;26.40;97.10
9730;DHT22;4904;49.152;11.004;2023-05-29T13:22:31;26.40;98.40
9730;DHT22;4904;49.152;11.004;2023-05-29T13:24:59;26.50;98.90
9730;DHT22;4904;49.152;11.004;2023-05-29T13:27:27;26.60;98.30
9730;DHT22;4904;49.152;11.004;2023-05-29T13:29:55;26.60;95.50
9730;DHT22;4904;49.152;11.004;2023-05-29T13:32:22;26.60;97.60
9730;DHT22;4904;49.152;11.004;2023-05-29T13:34:49;26.60;97.70
9730;DHT22;4904;49.152;11.004;2023-05-29T13:37:16;26.70;95.50
9730;DHT22;4904;49.152;11.004;2023-05-29T13:39:43;26.70;97.10
9730;DHT22;4904;49.152;11.004;2023-05-29T13:42:10;26.70;99.20
9730;DHT22;4904;49.152;11.004;2023-05-29T13:44:38;26.90;97.70
9730;DHT22;4904;49.152;11.004;2023-05-29T13:47:06;27.00;97.60
9730;DHT22;4904;49.152;11.004;2023-05-29T13:49:33;27.10;96.10
9730;DHT22;4904;49.152;11.004;2023-05-29T13:52:01;27.10;96.30
9730;DHT22;4904;49.152;11.004;2023-05-29T13:54:28;27.20;96.20
9730;DHT22;4904;49.152;11.004;2023-05-29T13:57:00;27.40;96.10
9730;DHT22;4904;49.152;11.004;2023-05-29T13:59:32;27.50;97.30
9730;DHT22;4904;49.152;11.004;2023-05-29T14:02:15;27.70;95.80
9730;DHT22;4904;49.152;11.004;2023-05-29T14:04:42;27.70;94.40
9730;DHT22;4904;49.152;11.004;2023-05-29T14:07:09;27.70;94.00
9730;DHT22;4904;49.152;11.004;2023-05-29T14:09:36;27.70;94.50
9730;DHT22;4904;49.152;11.004;2023-05-29T14:12:03;27.70;94.20
9730;DHT22;4904;49.152;11.004;2023-05-29T14:14:32;27.80;94.00
9730;DHT22;4904;49.152;11.004;2023-05-29T14:17:00;27.90;93.70
9730;DHT22;4904;49.152;11.004;2023-05-29T14:19:29;27.90;94.10
9730;DHT22;4904;49.152;11.004;2023-05-29T14:21:56;28.00;94.40
9730;DHT22;4904;49.152;11.004;2023-05-29T14:24:25;28.20;93.60
9730;DHT22;4904;49.152;11.004;2023-05-29T14:26:52;28.30;93.60
9730;DHT22;4904;49.152;11.004;2023-05-29T14:29:19;28.30;93.90
9730;DHT22;4904;49.152;11.004;2023-05-29T14:31:46;28.40;93.20
9730;DHT22;4904;49.152;11.004;2023-05-29T14:34:13;28.40;92.50
9730;DHT22;4904;49.152;11.004;2023-05-29T14:36:42;28.50;92.20
9730;DHT22;4904;49.152;11.004;2023-05-29T14:39:10;28.60;92.50
9730;DHT22;4904;49.152;11.004;2023-05-29T14:41:37;28.60;91.80
9730;DHT22;4904;49.152;11.004;2023-05-29T14:44:05;28.60;89.10
9730;DHT22;4904;49.152;11.004;2023-05-29T14:46:31;28.40;90.80
9730;DHT22;4904;49.152;11.004;2023-05-29T14:48:58;28.50;92.30
9730;DHT22;4904;49.152;11.004;2023-05-29T14:51:25;28.60;92.00
9730;DHT22;4904;49.152;11.004;2023-05-29T14:53:54;28.70;91.80
9730;DHT22;4904;49.152;11.004;2023-05-29T14:56:21;28.80;90.90
9730;DHT22;4904;49.152;11.004;2023-05-29T14:58:48;29.00;91.00
9730;DHT22;4904;49.152;11.004;2023-05-29T15:01:15;29.10;90.40
9730;DHT22;4904;49.152;11.004;2023-05-29T15:03:43;29.40;90.70
9730;DHT22;4904;49.152;11.004;2023-05-29T15:06:11;29.50;90.80
9730;DHT22;4904;49.152;11.004;2023-05-29T15:08:38;29.70;90.00
9730;DHT22;4904;49.152;11.004;2023-05-29T15:11:06;29.90;89.00
9730;DHT22;4904;49.152;11.004;2023-05-29T15:13:34;30.20;90.00
9730;DHT22;4904;49.152;11.004;2023-05-29T15:16:02;30.60;90.40
9730;DHT22;4904;49.152;11.004;2023-05-29T15:18:29;30.90;88.60
9730;DHT22;4904;49.152;11.004;2023-05-29T15:20:57;31.30;90.90
9730;DHT22;4904;49.152;11.004;2023-05-29T15:23:24;31.70;89.30
9730;DHT22;4904;49.152;11.004;2023-05-29T15:25:52;32.00;85.00
9730;DHT22;4904;49.152;11.004;2023-05-29T15:28:21;32.10;83.90
9730;DHT22;4904;49.152;11.004;2023-05-29T15:30:48;32.30;83.70
9730;DHT22;4904;49.152;11.004;2023-05-29T15:33:15;32.60;84.10
9730;DHT22;4904;49.152;11.004;2023-05-29T15:35:42;33.10;83.70
9730;DHT22;4904;49.152;11.004;2023-05-29T15:38:11;33.60;82.50
9730;DHT22;4904;49.152;11.004;2023-05-29T15:40:39;34.10;77.90
9730;DHT22;4904;49.152;11.004;2023-05-29T15:43:06;34.50;79.20
9730;DHT22;4904;49.152;11.004;2023-05-29T15:45:35;34.90;78.50
9730;DHT22;4904;49.152;11.004;2023-05-29T15:48:02;35.40;76.20
9730;DHT22;4904;49.152;11.004;2023-05-29T15:50:30;36.10;75.80
9730;DHT22;4904;49.152;11.004;2023-05-29T15:52:57;37.00;74.00
9730;DHT22;4904;49.152;11.004;2023-05-29T15:55:24;38.00;74.00
9730;DHT22;4904;49.152;11.004;2023-05-29T15:57:54;38.90;70.50